Time;durP1;ratioP1;P1;durP2;ratioP2;P2;SDS_P1;SDS_P2;PMS_P1;PMS_P2;Temp;Humidity;BMP_temperature;BMP_pressure;BME280_temperature;BME280_humidity;BME280_pressure;Samples;Min_cycle;Max_cycle;Signal;HPM_P1;HPM_P2
2023/08/11 00:01:35;;;;;;;0.20;0.20;;;;;;;18.69;73.90;100469.09;5039861;28;20080;-73
2023/08/11 00:04:02;;;;;;;0.20;0.20;;;;;;;18.70;73.85;100464.34;5023951;28;20068;-71
2023/08/11 00:06:28;;;;;;;0.20;0.20;;;;;;;18.66;74.03;100463.34;5063009;28;20056;-72
2023/08/11 00:08:56;;;;;;;0.20;0.20;;;;;;;18.64;74.13;100465.63;5059545;28;20309;-73
2023/08/11 00:11:22;;;;;;;0.20;0.20;;;;;;;18.57;74.64;100449.44;5045885;28;20045;-72
2023/08/11 00:13:48;;;;;;;0.20;0.20;;;;;;;18.54;75.44;100447.31;5065307;28;20053;-73
2023/08/11 00:16:15;;;;;;;0.20;0.20;;;;;;;18.49;75.13;100448.25;5043162;28;20048;-72
2023/08/11 00:18:41;;;;;;;0.32;0.25;;;;;;;18.50;75.33;100449.88;5047071;28;20047;-72
2023/08/11 00:21:08;;;;;;;0.20;0.20;;;;;;;18.47;75.51;100456.03;5050401;28;20045;-73
2023/08/11 00:23:39;;;;;;;0.20;0.20;;;;;;;18.45;75.84;100457.47;5056881;28;20397;-72
2023/08/11 00:26:07;;;;;;;0.20;0.20;;;;;;;18.40;76.28;100448.16;5060833;28;20045;-71
2023/08/11 00:28:33;;;;;;;0.20;0.20;;;;;;;18.39;76.21;100445.69;5041987;28;20538;-71
2023/08/11 00:30:59;;;;;;;0.20;0.20;;;;;;;18.35;76.44;100439.16;5055969;28;20078;-73
2023/08/11 00:33:25;;;;;;;0.20;0.20;;;;;;;18.32;77.04;100445.31;5056188;28;20041;-72
2023/08/11 00:35:52;;;;;;;0.20;0.20;;;;;;;18.28;77.08;100448.72;5045783;28;20047;-72
2023/08/11 00:38:18;;;;;;;0.20;0.20;;;;;;;18.30;76.91;100448.38;5030191;28;20388;-73
2023/08/11 00:40:44;;;;;;;0.20;0.20;;;;;;;18.28;77.58;100440.41;5048793;28;20106;-73
2023/08/11 00:43:12;;;;;;;0.20;0.20;;;;;;;18.25;77.64;100441.00;5011921;28;20607;-73
2023/08/11 00:45:44;;;;;;;0.20;0.20;;;;;;;18.22;77.68;100449.13;5033349;28;20044;-72
2023/08/11 00:48:10;;;;;;;0.20;0.20;;;;;;;18.21;77.88;100451.06;5064250;28;20040;-71
2023/08/11 00:50:39;;;;;;;0.20;0.20;;;;;;;18.18;78.05;100440.63;5052439;28;20098;-72
2023/08/11 00:53:05;;;;;;;0.20;0.20;;;;;;;18.18;78.27;100443.41;5056524;28;20040;-73
2023/08/11 00:55:32;;;;;;;0.20;0.20;;;;;;;18.18;78.08;100437.03;5050675;28;20057;-73
2023/08/11 00:57:59;;;;;;;0.20;0.20;;;;;;;18.12;78.70;100445.47;5028657;28;20041;-73
2023/08/11 01:00:28;;;;;;;0.20;0.20;;;;;;;18.13;78.51;100446.28;5056289;28;20084;-73
2023/08/11 01:02:54;;;;;;;0.20;0.20;;;;;;;18.14;78.87;100450.69;5056748;28;20095;-73
2023/08/11 01:05:22;;;;;;;0.20;0.20;;;;;;;18.12;78.88;100451.00;5029761;28;20511;-72
2023/08/11 01:08:03;;;;;;;0.20;0.20;;;;;;;18.09;78.85;100451.63;5042632;28;20448;-72
2023/08/11 01:10:37;;;;;;;0.20;0.20;;;;;;;18.09;79.41;100445.25;5060520;28;20432;-72
2023/08/11 01:13:11;;;;;;;0.20;0.20;;;;;;;18.06;79.35;100456.94;5038629;28;20139;-72
2023/08/11 01:15:43;;;;;;;0.20;0.20;;;;;;;18.05;79.65;100456.13;5066849;28;20052;-72
2023/08/11 01:18:12;;;;;;;0.20;0.20;;;;;;;18.04;80.00;100454.50;5053923;28;20071;-73
2023/08/11 01:20:39;;;;;;;0.20;0.20;;;;;;;18.02;80.01;100447.59;5033267;28;20132;-73
2023/08/11 01:23:06;;;;;;;;;;;;;;;18.05;79.82;100442.31;5060725;28;20048;-71
2023/08/11 01:25:34;;;;;;;0.20;0.20;;;;;;;18.04;80.02;100453.66;5041731;28;19932;-73
2023/08/11 01:28:01;;;;;;;0.20;0.20;;;;;;;18.00;80.12;100437.66;5046471;28;20054;-72
2023/08/11 01:30:29;;;;;;;0.20;0.20;;;;;;;17.98;80.30;100434.38;5011992;28;20044;-71
2023/08/11 01:32:56;;;;;;;0.20;0.20;;;;;;;17.97;80.46;100435.53;5055692;28;20036;-72
2023/08/11 01:35:23;;;;;;;0.20;0.20;;;;;;;17.97;80.68;100429.16;5053885;28;20063;-72
2023/08/11 01:37:50;;;;;;;0.20;0.20;;;;;;;17.84;80.70;100414.22;5058961;28;20090;-72
2023/08/11 01:40:16;;;;;;;0.20;0.20;;;;;;;17.96;81.05;100435.81;5065026;28;20050;-72
2023/08/11 01:42:45;;;;;;;0.20;0.20;;;;;;;17.96;81.17;100425.59;5047674;28;20095;-72
2023/08/11 01:45:13;;;;;;;0.20;0.20;;;;;;;17.96;81.11;100427.53;5050215;28;20222;-72
2023/08/11 01:47:42;;;;;;;0.20;0.20;;;;;;;17.95;81.33;100425.88;5066743;28;20044;-72
2023/08/11 01:50:10;;;;;;;0.20;0.20;;;;;;;17.94;81.26;100422.28;5065015;28;20060;-72
2023/08/11 01:52:37;;;;;;;;;;;;;;;17.91;81.66;100417.38;5047144;28;20052;-72
2023/08/11 01:55:03;;;;;;;;;;;;;;;17.84;81.90;100422.53;5046832;28;19931;-73
2023/08/11 01:57:30;;;;;;;0.20;0.20;;;;;;;17.81;81.60;100428.69;5043524;28;19964;-71
2023/08/11 01:59:58;;;;;;;0.20;0.20;;;;;;;17.81;82.00;100425.91;5010891;28;20057;-73
2023/08/11 02:02:25;;;;;;;0.20;0.20;;;;;;;17.84;82.55;100425.28;5037796;28;20056;-72
2023/08/11 02:04:51;;;;;;;0.20;0.20;;;;;;;17.85;82.48;100419.44;5054215;28;20049;-73
2023/08/11 02:07:18;;;;;;;;;;;;;;;17.93;82.45;100422.63;5053709;28;20052;-72
2023/08/11 02:09:44;;;;;;;0.20;0.20;;;;;;;17.97;82.03;100421.69;5064990;28;19969;-72
2023/08/11 02:12:10;;;;;;;0.20;0.20;;;;;;;18.03;82.00;100424.38;5052315;28;20052;-73
2023/08/11 02:14:36;;;;;;;0.20;0.20;;;;;;;18.09;81.95;100421.19;5049086;28;20162;-73
2023/08/11 02:17:04;;;;;;;0.20;0.20;;;;;;;18.14;82.01;100414.72;5063759;28;20048;-73
2023/08/11 02:19:51;;;;;;;0.20;0.20;;;;;;;18.21;81.81;100422.59;5050278;28;20060;-72
2023/08/11 02:22:18;;;;;;;0.20;0.20;;;;;;;18.25;82.01;100420.84;5043563;28;20048;-73
2023/08/11 02:24:45;;;;;;;0.20;0.20;;;;;;;18.31;81.87;100418.78;5061420;28;20044;-73
2023/08/11 02:27:13;;;;;;;0.20;0.20;;;;;;;18.30;81.92;100417.13;5065890;28;20044;-73
2023/08/11 02:29:39;;;;;;;0.20;0.20;;;;;;;18.28;82.55;100400.84;5036774;28;20459;-73
2023/08/11 02:32:08;;;;;;;0.25;0.25;;;;;;;18.34;82.38;100418.16;5047412;28;20056;-73
2023/08/11 02:34:35;;;;;;;0.20;0.20;;;;;;;18.36;82.26;100399.28;5063888;28;20495;-73
2023/08/11 02:37:02;;;;;;;0.20;0.20;;;;;;;18.43;82.06;100399.66;5031523;28;20048;-72
2023/08/11 02:39:29;;;;;;;0.20;0.20;;;;;;;18.50;82.06;100400.03;5043286;28;20095;-72
2023/08/11 02:41:55;;;;;;;0.10;0.10;;;;;;;18.60;81.52;100406.47;5041361;28;20135;-74
2023/08/11 02:44:22;;;;;;;0.20;0.20;;;;;;;18.72;81.17;100401.16;5057439;28;20041;-73
2023/08/11 02:46:48;;;;;;;0.20;0.20;;;;;;;18.78;81.25;100399.09;5047285;28;20045;-74
2023/08/11 02:49:17;;;;;;;0.30;0.30;;;;;;;18.87;80.59;100399.97;5028273;28;20053;-72
2023/08/11 02:51:44;;;;;;;0.20;0.20;;;;;;;18.94;79.97;100396.75;5025218;28;20049;-74
2023/08/11 02:54:11;;;;;;;;;;;;;;;19.00;80.19;100387.19;5048131;28;20405;-74
2023/08/11 02:56:44;;;;;;;0.20;0.20;;;;;;;19.01;79.63;100374.97;5044135;28;19925;-72
2023/08/11 02:59:10;;;;;;;0.30;0.30;;;;;;;19.05;79.90;100372.38;5043023;28;20547;-73
2023/08/11 03:01:36;;;;;;;0.20;0.20;;;;;;;19.06;79.53;100372.06;5044003;28;20056;-73
2023/08/11 03:04:03;;;;;;;0.20;0.20;;;;;;;19.12;79.76;100370.78;5051928;28;20049;-71
2023/08/11 03:06:31;;;;;;;0.20;0.20;;;;;;;19.15;80.00;100362.97;5043136;28;20056;-73
2023/08/11 03:08:57;;;;;;;0.20;0.20;;;;;;;19.18;80.11;100370.63;5063023;28;20069;-72
2023/08/11 03:11:23;;;;;;;0.20;0.20;;;;;;;19.21;80.42;100373.59;5037930;28;20045;-73
2023/08/11 03:13:49;;;;;;;0.20;0.20;;;;;;;19.25;80.26;100384.88;5043846;28;20059;-73
2023/08/11 03:16:16;;;;;;;0.43;0.30;;;;;;;19.29;80.25;100385.88;5050933;28;20057;-72
2023/08/11 03:18:42;;;;;;;0.20;0.20;;;;;;;19.34;80.10;100379.38;5055747;28;20307;-73
2023/08/11 03:21:08;;;;;;;0.20;0.20;;;;;;;19.41;80.13;100388.03;5051311;28;20114;-72
2023/08/11 03:23:36;;;;;;;0.30;0.30;;;;;;;19.51;80.00;100389.69;5042418;28;20044;-73
2023/08/11 03:26:02;;;;;;;0.20;0.20;;;;;;;19.56;80.33;100393.13;5029615;28;20155;-73
2023/08/11 03:28:31;;;;;;;0.30;0.30;;;;;;;19.65;80.44;100378.47;5044779;28;20071;-73
2023/08/11 03:30:59;;;;;;;0.20;0.20;;;;;;;19.75;80.46;100380.97;5061258;28;20113;-71
2023/08/11 03:33:26;;;;;;;0.30;0.30;;;;;;;19.84;80.49;100378.22;5034929;28;20060;-72
2023/08/11 03:36:02;;;;;;;0.20;0.20;;;;;;;19.90;79.69;100382.44;5044756;28;20132;-73
2023/08/11 03:38:29;;;;;;;0.22;0.22;;;;;;;20.04;79.56;100387.06;5036356;28;20523;-73
2023/08/11 03:40:57;;;;;;;0.20;0.20;;;;;;;20.10;78.83;100386.59;5045957;28;20060;-72
2023/08/11 03:43:23;;;;;;;0.30;0.30;;;;;;;20.27;78.12;100383.00;5045416;28;20083;-73
2023/08/11 03:45:50;;;;;;;0.30;0.30;;;;;;;20.37;77.23;100389.38;5060284;28;20450;-74
2023/08/11 03:48:16;;;;;;;0.28;0.28;;;;;;;20.37;77.27;100381.88;5047777;28;20144;-73
2023/08/11 03:50:42;;;;;;;0.20;0.20;;;;;;;20.37;76.90;100372.72;5047706;28;20056;-72
2023/08/11 03:53:09;;;;;;;0.20;0.20;;;;;;;20.29;77.33;100377.13;5055899;28;20057;-73
2023/08/11 03:55:35;;;;;;;0.20;0.20;;;;;;;20.28;76.92;100364.38;5043314;28;20055;-73
2023/08/11 03:58:03;;;;;;;0.20;0.20;;;;;;;20.25;76.99;100374.16;5051522;28;20099;-73
2023/08/11 04:00:30;;;;;;;0.20;0.20;;;;;;;20.26;76.55;100366.69;5041015;28;20045;-71
2023/08/11 04:03:09;;;;;;;0.20;0.20;;;;;;;20.25;76.33;100354.75;5044038;28;20429;-72
2023/08/11 04:05:35;;;;;;;0.30;0.30;;;;;;;20.25;75.89;100332.53;5041558;28;20516;-73
2023/08/11 04:08:04;;;;;;;0.22;0.22;;;;;;;20.26;75.51;100327.81;5062119;28;20132;-73
2023/08/11 04:10:31;;;;;;;0.20;0.20;;;;;;;20.30;75.28;100337.09;5046272;28;20049;-71
2023/08/11 04:12:57;;;;;;;;;;;;;;;20.41;74.95;100343.13;5040161;28;20063;-72
2023/08/11 04:15:25;;;;;;;0.20;0.20;;;;;;;20.51;74.08;100356.69;5013836;28;20402;-73
2023/08/11 04:17:52;;;;;;;0.30;0.30;;;;;;;20.56;73.67;100355.72;5049910;28;20551;-72
2023/08/11 04:20:19;;;;;;;0.22;0.22;;;;;;;20.57;73.61;100359.28;5045073;28;20052;-73
2023/08/11 04:22:45;;;;;;;0.30;0.30;;;;;;;20.50;74.21;100357.84;5028310;28;20037;-71
2023/08/11 04:25:12;;;;;;;0.20;0.20;;;;;;;20.46;73.89;100370.75;5040709;28;20051;-71
2023/08/11 04:27:46;;;;;;;0.30;0.30;;;;;;;20.46;74.03;100362.41;5057087;28;20045;-71
2023/08/11 04:30:13;;;;;;;0.30;0.30;;;;;;;20.56;73.61;100361.25;5060243;28;20044;-72
2023/08/11 04:32:44;;;;;;;0.20;0.20;;;;;;;20.60;73.38;100364.19;5048897;28;20052;-72
2023/08/11 04:35:10;;;;;;;0.20;0.20;;;;;;;20.61;72.95;100351.94;5045614;28;20037;-72
2023/08/11 04:37:39;;;;;;;0.30;0.30;;;;;;;20.65;72.86;100347.34;5052729;28;20094;-72
2023/08/11 04:40:10;;;;;;;0.20;0.20;;;;;;;20.64;73.25;100329.84;5056535;28;20506;-72
2023/08/11 04:42:36;;;;;;;0.30;0.30;;;;;;;20.65;72.57;100323.16;5056724;28;20131;-72
2023/08/11 04:45:03;;;;;;;0.23;0.23;;;;;;;20.70;72.49;100324.94;5047873;28;20073;-72
2023/08/11 04:47:32;;;;;;;0.30;0.30;;;;;;;20.69;71.95;100314.97;5062895;28;20044;-72
2023/08/11 04:50:00;;;;;;;0.20;0.20;;;;;;;20.64;72.60;100312.41;5053769;28;20057;-72
2023/08/11 04:52:27;;;;;;;0.20;0.20;;;;;;;20.62;72.81;100318.25;5041414;28;20396;-73
2023/08/11 04:54:54;;;;;;;0.30;0.30;;;;;;;20.59;73.15;100320.88;5046127;28;20052;-73
2023/08/11 04:57:20;;;;;;;0.30;0.30;;;;;;;20.59;73.07;100323.66;5045189;28;20041;-72
2023/08/11 04:59:49;;;;;;;0.30;0.30;;;;;;;20.60;72.84;100325.28;5034255;28;20037;-72
2023/08/11 05:02:16;;;;;;;0.20;0.20;;;;;;;20.61;72.58;100344.41;5059458;28;20415;-72
2023/08/11 05:04:42;;;;;;;0.20;0.20;;;;;;;20.66;71.80;100341.44;5064013;28;20097;-73
2023/08/11 05:07:09;;;;;;;0.20;0.20;;;;;;;20.76;72.51;100356.16;5063459;28;20044;-71
2023/08/11 05:09:36;;;;;;;0.30;0.30;;;;;;;20.85;72.30;100368.09;5030741;28;20041;-73
2023/08/11 05:12:03;;;;;;;0.20;0.20;;;;;;;20.88;72.69;100380.50;5065026;28;20151;-72
2023/08/11 05:14:29;;;;;;;0.20;0.20;;;;;;;20.82;72.22;100379.84;5065734;28;20052;-72
2023/08/11 05:16:55;;;;;;;0.30;0.30;;;;;;;20.72;72.84;100378.22;5045951;28;20052;-73
2023/08/11 05:19:21;;;;;;;0.30;0.30;;;;;;;20.59;75.01;100380.03;5048734;28;20466;-73
2023/08/11 05:21:48;;;;;;;0.20;0.20;;;;;;;20.17;78.32;100399.16;5041858;28;20060;-72
2023/08/11 05:24:15;;;;;;;0.20;0.20;;;;;;;19.82;80.55;100391.56;5042854;28;20356;-73
2023/08/11 05:26:42;;;;;;;0.30;0.20;;;;;;;19.68;82.35;100391.69;5038061;28;20061;-72
2023/08/11 05:29:08;;;;;;;0.20;0.20;;;;;;;19.55;82.91;100397.03;5053821;28;20512;-72
2023/08/11 05:31:34;;;;;;;0.25;0.25;;;;;;;19.60;83.50;100401.63;5048635;28;20099;-73
2023/08/11 05:34:00;;;;;;;0.20;0.20;;;;;;;19.70;83.35;100397.75;5060474;28;20638;-72
2023/08/11 05:36:27;;;;;;;0.20;0.20;;;;;;;19.82;83.32;100388.78;5058942;28;20420;-73
2023/08/11 05:38:53;;;;;;;0.30;0.30;;;;;;;19.95;82.80;100385.09;5058678;28;20519;-73
2023/08/11 05:41:21;;;;;;;0.30;0.30;;;;;;;20.08;82.19;100379.72;5052330;28;20055;-71
2023/08/11 05:43:47;;;;;;;0.20;0.20;;;;;;;20.17;81.88;100386.09;5049762;28;20044;-72
2023/08/11 05:46:14;;;;;;;0.20;0.20;;;;;;;20.25;81.63;100379.72;5048416;28;20121;-73
2023/08/11 05:48:40;;;;;;;0.20;0.20;;;;;;;20.32;81.15;100367.31;5008474;28;20061;-72
2023/08/11 05:51:06;;;;;;;0.30;0.30;;;;;;;20.34;80.69;100371.41;5048565;28;20068;-73
2023/08/11 05:53:32;;;;;;;0.30;0.30;;;;;;;20.38;80.47;100372.41;5041831;28;20131;-72
2023/08/11 05:55:59;;;;;;;0.20;0.20;;;;;;;20.47;80.22;100358.50;5057658;28;20053;-73
2023/08/11 05:58:28;;;;;;;0.30;0.30;;;;;;;20.66;79.91;100363.69;5061324;28;20052;-73
2023/08/11 06:00:54;;;;;;;0.20;0.20;;;;;;;20.74;79.83;100356.47;5063969;28;20094;-73
2023/08/11 06:03:20;;;;;;;0.20;0.20;;;;;;;20.82;78.93;100350.13;5050641;28;20075;-73
2023/08/11 06:05:46;;;;;;;0.20;0.20;;;;;;;20.99;78.78;100354.00;5048890;28;20401;-72
2023/08/11 06:08:12;;;;;;;0.30;0.30;;;;;;;21.11;78.30;100351.34;5053607;28;20076;-72
2023/08/11 06:10:38;;;;;;;0.30;0.30;;;;;;;21.38;77.05;100335.31;5052439;28;20041;-72
2023/08/11 06:13:04;;;;;;;0.25;0.25;;;;;;;21.51;76.95;100341.00;5049476;28;20079;-73
2023/08/11 06:15:32;;;;;;;0.30;0.30;;;;;;;21.50;76.67;100340.19;5049356;28;20047;-72
2023/08/11 06:17:58;;;;;;;0.20;0.20;;;;;;;21.41;76.71;100347.75;5052477;28;20052;-72
2023/08/11 06:20:24;;;;;;;0.30;0.30;;;;;;;21.28;77.01;100337.69;5054564;28;20053;-71
2023/08/11 06:22:51;;;;;;;0.30;0.30;;;;;;;21.22;77.30;100335.09;5047934;28;20045;-72
2023/08/11 06:25:17;;;;;;;0.20;0.20;;;;;;;21.14;77.33;100337.91;5050380;28;20068;-73
2023/08/11 06:27:44;;;;;;;0.20;0.20;;;;;;;21.03;77.52;100338.28;5046204;28;20047;-73
2023/08/11 06:30:11;;;;;;;0.30;0.30;;;;;;;20.95;78.05;100350.25;5048766;28;20076;-72
2023/08/11 06:32:39;;;;;;;0.20;0.20;;;;;;;20.87;78.49;100345.53;5055207;28;20048;-73
2023/08/11 06:35:07;;;;;;;0.30;0.30;;;;;;;20.85;78.79;100353.38;5027417;28;20099;-73
2023/08/11 06:37:33;;;;;;;0.25;0.25;;;;;;;20.79;79.28;100355.47;5032426;28;20052;-74
2023/08/11 06:39:59;;;;;;;0.20;0.20;;;;;;;20.73;80.25;100348.47;5052058;28;20052;-73
2023/08/11 06:42:26;;;;;;;0.20;0.20;;;;;;;20.65;79.95;100359.25;5053552;28;20044;-73
2023/08/11 06:45:02;;;;;;;0.20;0.20;;;;;;;20.68;79.58;100353.06;5038249;28;20310;-72
2023/08/11 06:47:31;;;;;;;0.30;0.30;;;;;;;20.78;78.95;100351.06;5061337;28;20056;-73
2023/08/11 06:49:58;;;;;;;0.32;0.30;;;;;;;20.81;78.41;100342.09;5055110;28;20057;-72
2023/08/11 06:52:26;;;;;;;0.20;0.20;;;;;;;20.90;78.24;100350.41;5040628;28;20048;-72
2023/08/11 06:54:52;;;;;;;0.30;0.30;;;;;;;21.00;77.91;100352.84;5026779;28;20048;-73
2023/08/11 06:57:20;;;;;;;0.30;0.30;;;;;;;21.17;76.47;100353.91;5043732;28;20084;-73
2023/08/11 06:59:46;;;;;;;0.30;0.30;;;;;;;21.36;76.02;100357.09;5045059;28;20044;-73
2023/08/11 07:02:12;;;;;;;0.30;0.30;;;;;;;21.56;74.69;100354.72;5044050;28;20170;-73
2023/08/11 07:04:39;;;;;;;0.30;0.30;;;;;;;21.80;73.62;100356.06;5039672;28;20295;-73
2023/08/11 07:07:07;;;;;;;0.30;0.30;;;;;;;22.09;72.45;100355.22;5038360;28;20056;-73
2023/08/11 07:09:34;;;;;;;0.30;0.30;;;;;;;22.30;71.89;100353.53;5056290;28;20071;-72
2023/08/11 07:12:00;;;;;;;0.30;0.30;;;;;;;22.43;70.89;100346.88;5052834;28;20106;-73
2023/08/11 07:14:27;;;;;;;0.30;0.30;;;;;;;22.43;70.53;100354.44;5061408;28;20076;-71
2023/08/11 07:16:53;;;;;;;0.30;0.30;;;;;;;22.40;70.50;100347.56;5055453;28;20041;-73
2023/08/11 07:19:20;;;;;;;0.20;0.20;;;;;;;22.35;70.97;100350.56;5056618;28;20041;-73
2023/08/11 07:21:46;;;;;;;0.30;0.30;;;;;;;22.24;71.15;100344.56;5046299;28;20094;-72
2023/08/11 07:24:14;;;;;;;0.20;0.20;;;;;;;22.24;71.62;100330.66;5045474;28;20049;-72
2023/08/11 07:26:41;;;;;;;0.30;0.30;;;;;;;22.28;71.35;100328.00;5030161;28;20052;-73
2023/08/11 07:29:07;;;;;;;;;;;;;;;22.36;70.85;100316.00;5048728;28;20045;-72
2023/08/11 07:31:33;;;;;;;0.30;0.30;;;;;;;22.40;70.88;100303.00;5035367;28;19928;-72
2023/08/11 07:33:59;;;;;;;0.30;0.30;;;;;;;22.51;70.19;100309.81;5059929;28;20064;-72
2023/08/11 07:36:26;;;;;;;0.30;0.30;;;;;;;22.74;69.09;100314.16;5051384;28;20052;-71
2023/08/11 07:38:52;;;;;;;0.40;0.40;;;;;;;23.27;68.02;100325.50;5058230;28;20045;-72
2023/08/11 07:41:20;;;;;;;0.30;0.30;;;;;;;23.68;65.95;100327.53;5056970;28;20102;-72
2023/08/11 07:43:47;;;;;;;0.35;0.35;;;;;;;23.98;64.61;100322.50;5047132;28;20130;-70
2023/08/11 07:46:13;;;;;;;0.30;0.30;;;;;;;24.32;63.74;100327.84;5044804;28;20160;-71
2023/08/11 07:48:39;;;;;;;0.40;0.40;;;;;;;24.72;62.25;100317.72;5040254;28;20079;-71
2023/08/11 07:51:06;;;;;;;0.40;0.40;;;;;;;25.06;59.94;100305.06;5049255;28;20142;-71
2023/08/11 07:53:32;;;;;;;0.30;0.30;;;;;;;25.11;60.00;100309.56;5062497;28;20487;-71
2023/08/11 07:56:00;;;;;;;0.30;0.30;;;;;;;24.98;59.94;100303.28;5061937;28;20040;-71
2023/08/11 07:58:28;;;;;;;0.30;0.30;;;;;;;24.59;61.20;100317.00;5063836;28;20534;-71
2023/08/11 08:00:56;;;;;;;0.30;0.30;;;;;;;24.45;61.59;100317.44;5055697;28;20063;-71
2023/08/11 08:03:24;;;;;;;0.30;0.30;;;;;;;24.27;62.75;100305.75;5051345;28;20053;-70
2023/08/11 08:05:52;;;;;;;0.30;0.30;;;;;;;24.35;62.96;100297.22;5045983;28;20506;-72
2023/08/11 08:08:18;;;;;;;;;;;;;;;24.81;61.77;100290.47;5054667;28;20115;-71
2023/08/11 08:11:07;;;;;;;0.30;0.30;;;;;;;25.58;59.14;100274.31;5061833;28;20596;-71
2023/08/11 08:13:36;;;;;;;0.30;0.30;;;;;;;26.01;57.63;100271.63;5047067;28;20044;-71
2023/08/11 08:16:02;;;;;;;0.32;0.32;;;;;;;25.81;57.82;100269.97;5056119;28;20041;-71
2023/08/11 08:18:28;;;;;;;0.30;0.30;;;;;;;25.35;58.67;100266.59;5056662;28;20045;-72
2023/08/11 08:20:55;;;;;;;0.30;0.30;;;;;;;24.95;59.74;100290.00;5064059;28;20402;-72
2023/08/11 08:23:22;;;;;;;0.30;0.30;;;;;;;24.69;59.96;100277.34;5056412;28;20568;-71
2023/08/11 08:25:48;;;;;;;0.30;0.30;;;;;;;24.43;60.97;100284.25;5060608;28;20520;-71
2023/08/11 08:28:14;;;;;;;0.30;0.30;;;;;;;24.36;61.53;100292.47;5053391;28;20470;-72
2023/08/11 08:30:42;;;;;;;0.40;0.40;;;;;;;24.41;61.11;100281.00;5036904;28;20044;-70
2023/08/11 08:33:08;;;;;;;0.60;0.60;;;;;;;25.09;59.69;100283.13;5053698;28;20037;-71
2023/08/11 08:35:35;;;;;;;0.30;0.30;;;;;;;25.69;57.14;100270.94;5052901;28;20055;-72
2023/08/11 08:38:01;;;;;;;0.30;0.30;;;;;;;25.88;56.49;100275.75;5057992;28;20094;-72
2023/08/11 08:40:27;;;;;;;0.40;0.40;;;;;;;25.59;56.74;100272.31;5051672;28;20060;-71
2023/08/11 08:42:54;;;;;;;0.30;0.30;;;;;;;25.20;58.35;100290.59;5048233;28;20683;-71
2023/08/11 08:45:21;;;;;;;0.30;0.30;;;;;;;25.06;58.55;100284.69;5038387;28;20056;-71
2023/08/11 08:47:51;;;;;;;0.30;0.30;;;;;;;25.00;58.67;100284.16;5056773;28;20044;-71
2023/08/11 08:50:18;;;;;;;0.30;0.30;;;;;;;24.85;58.91;100285.75;5051960;28;20049;-71
2023/08/11 08:52:47;;;;;;;;;;;;;;;24.76;59.22;100290.75;5056099;28;20507;-71
2023/08/11 08:55:20;;;;;;;0.40;0.40;;;;;;;24.75;59.43;100275.09;5060336;28;19993;-72
2023/08/11 08:57:47;;;;;;;0.38;0.38;;;;;;;24.72;60.14;100286.97;5040534;28;20090;-72
2023/08/11 09:00:18;;;;;;;0.30;0.30;;;;;;;24.61;60.56;100292.31;5058087;28;20046;-71
2023/08/11 09:02:46;;;;;;;0.30;0.30;;;;;;;24.38;61.28;100284.53;5021131;28;20486;-71
2023/08/11 09:05:21;;;;;;;0.30;0.30;;;;;;;24.19;62.42;100293.56;5056368;28;20048;-71
2023/08/11 09:07:49;;;;;;;0.30;0.30;;;;;;;24.05;63.07;100294.78;5045951;28;20106;-71
2023/08/11 09:10:18;;;;;;;0.30;0.30;;;;;;;24.11;63.18;100300.13;5032864;28;20041;-72
2023/08/11 09:12:51;;;;;;;0.40;0.40;;;;;;;24.36;62.65;100293.25;5053650;28;20051;-72
2023/08/11 09:15:21;;;;;;;0.30;0.30;;;;;;;24.82;61.33;100297.66;5058819;28;20060;-71
2023/08/11 09:17:48;;;;;;;0.32;0.32;;;;;;;24.64;61.34;100288.78;5038820;28;20049;-70
2023/08/11 09:20:19;;;;;;;0.30;0.30;;;;;;;24.49;62.38;100298.78;5054209;28;20546;-71
2023/08/11 09:22:46;;;;;;;0.30;0.30;;;;;;;24.30;62.36;100297.50;5029785;28;20072;-71
2023/08/11 09:25:16;;;;;;;0.30;0.30;;;;;;;24.07;63.67;100302.81;5061096;28;20231;-70
2023/08/11 09:27:42;;;;;;;0.30;0.30;;;;;;;23.78;64.48;100294.38;5022970;28;20070;-71
2023/08/11 09:30:10;;;;;;;0.30;0.30;;;;;;;23.53;65.46;100290.81;5059368;28;20064;-71
2023/08/11 09:32:36;;;;;;;0.30;0.30;;;;;;;23.41;66.19;100288.88;5058711;28;20472;-71
2023/08/11 09:35:08;;;;;;;0.30;0.30;;;;;;;23.32;66.78;100299.31;5057451;28;20044;-71
2023/08/11 09:37:56;;;;;;;0.30;0.30;;;;;;;23.25;68.07;100299.88;5042549;28;20037;-71
2023/08/11 09:41:18;;;;;;;0.30;0.30;;;;;;;23.23;68.10;100296.63;5096366;22;20064;-71
2023/08/11 09:43:47;;;;;;;0.30;0.30;;;;;;;23.19;67.99;100307.69;5034218;28;20044;-70
2023/08/11 09:46:17;;;;;;;0.30;0.30;;;;;;;23.16;68.08;100294.41;5048217;28;20044;-71
2023/08/11 09:48:48;;;;;;;0.30;0.30;;;;;;;23.17;68.32;100292.47;5007887;28;20060;-72
2023/08/11 09:51:15;;;;;;;0.30;0.30;;;;;;;23.16;68.51;100276.91;5020109;28;20046;-72
2023/08/11 09:53:50;;;;;;;0.27;0.27;;;;;;;23.11;68.81;100269.56;5020060;28;20543;-71
2023/08/11 09:56:18;;;;;;;0.30;0.30;;;;;;;23.17;68.82;100275.72;5017514;28;20054;-71
2023/08/11 09:58:52;;;;;;;0.20;0.20;;;;;;;23.12;68.82;100273.97;5038846;28;20076;-72
2023/08/11 10:01:24;;;;;;;0.30;0.30;;;;;;;23.02;69.58;100268.88;4654533;28;10000136;-70
2023/08/11 10:04:24;;;;;;;0.30;0.30;;;;;;;23.18;69.17;100282.94;5029307;28;20116;-72
2023/08/11 10:06:56;;;;;;;0.30;0.30;;;;;;;23.23;69.42;100303.03;4998946;28;20042;-71
2023/08/11 10:09:51;;;;;;;0.30;0.30;;;;;;;23.40;68.54;100306.78;5037962;28;20052;-71
2023/08/11 10:12:20;;;;;;;0.30;0.30;;;;;;;23.46;68.35;100302.56;5017834;28;20520;-71
2023/08/11 10:14:47;;;;;;;0.30;0.30;;;;;;;23.44;68.70;100288.16;5001516;28;20639;-71
2023/08/11 10:17:13;;;;;;;0.30;0.30;;;;;;;23.48;68.51;100297.44;5022262;28;20045;-70
2023/08/11 10:19:41;;;;;;;0.30;0.30;;;;;;;23.55;68.62;100288.50;5036877;28;20060;-70
2023/08/11 10:22:12;;;;;;;0.30;0.30;;;;;;;23.46;68.74;100293.41;5021973;28;20040;-70
2023/08/11 10:24:43;;;;;;;0.30;0.30;;;;;;;23.31;69.32;100298.53;5023474;28;20063;-70
2023/08/11 10:27:16;;;;;;;0.30;0.30;;;;;;;23.16;70.13;100296.41;5000057;28;20053;-71
2023/08/11 10:29:54;;;;;;;0.30;0.30;;;;;;;23.03;71.05;100304.78;5015352;28;20508;-71
2023/08/11 10:32:31;;;;;;;0.30;0.30;;;;;;;23.00;71.45;100299.06;5017056;28;20543;-71
2023/08/11 10:35:32;;;;;;;0.30;0.30;;;;;;;23.00;71.65;100294.31;5038640;28;20071;-71
2023/08/11 10:37:59;;;;;;;0.30;0.30;;;;;;;22.99;71.75;100301.06;5038611;28;20037;-71
2023/08/11 10:40:33;;;;;;;;;;;;;;;23.02;71.56;100303.16;5020324;28;20068;-70
2023/08/11 10:43:02;;;;;;;0.30;0.30;;;;;;;22.93;71.55;100291.28;5015855;28;19975;-70
2023/08/11 10:45:44;;;;;;;0.30;0.30;;;;;;;22.98;71.39;100281.88;5001339;28;20879;-70
2023/08/11 10:48:12;;;;;;;0.30;0.30;;;;;;;22.93;71.37;100278.16;5030450;28;20044;-71
2023/08/11 10:50:41;;;;;;;0.30;0.30;;;;;;;22.95;71.47;100273.06;5033521;28;20044;-70
2023/08/11 10:53:18;;;;;;;0.30;0.30;;;;;;;22.94;71.64;100268.63;5030954;28;20052;-70
2023/08/11 10:55:58;;;;;;;0.30;0.30;;;;;;;23.03;71.47;100265.75;5036202;28;20072;-70
2023/08/11 10:58:24;;;;;;;0.30;0.30;;;;;;;23.25;70.79;100257.25;5033966;28;20521;-72
2023/08/11 11:00:51;;;;;;;0.30;0.30;;;;;;;23.49;69.41;100257.25;5019298;28;20072;-70
2023/08/11 11:03:18;;;;;;;0.30;0.30;;;;;;;23.53;69.17;100259.34;5017259;28;20603;-71
2023/08/11 11:05:44;;;;;;;0.20;0.20;;;;;;;23.43;69.18;100266.22;4998881;28;20778;-70
2023/08/11 11:08:11;;;;;;;0.30;0.30;;;;;;;23.30;69.66;100254.25;4978133;28;20056;-71
2023/08/11 11:10:37;;;;;;;0.30;0.30;;;;;;;23.22;69.66;100262.38;4999763;28;20440;-70
2023/08/11 11:13:07;;;;;;;0.30;0.30;;;;;;;23.18;69.45;100264.25;5038663;28;20037;-70
2023/08/11 11:15:43;;;;;;;0.30;0.30;;;;;;;23.22;69.68;100272.69;5036862;28;20104;-70
2023/08/11 11:18:09;;;;;;;0.20;0.20;;;;;;;23.12;69.51;100271.19;4999976;28;20045;-72
2023/08/11 11:20:37;;;;;;;0.20;0.20;;;;;;;23.04;70.05;100280.50;5036389;28;20052;-70
2023/08/11 11:23:04;;;;;;;0.30;0.30;;;;;;;22.95;70.36;100283.41;5000844;28;20051;-71
2023/08/11 11:25:32;;;;;;;0.30;0.30;;;;;;;23.05;70.22;100284.91;5036544;28;20051;-70
2023/08/11 11:28:25;;;;;;;0.30;0.30;;;;;;;23.11;69.71;100277.13;5033481;28;20623;-71
2023/08/11 11:30:51;;;;;;;0.20;0.20;;;;;;;23.26;69.39;100286.75;4996617;28;20144;-70
2023/08/11 11:33:18;;;;;;;0.30;0.30;;;;;;;23.21;69.25;100290.59;5001852;28;20540;-71